createdAt,value
2019-05-06T00:00:27.764Z,75.10
2019-05-06T00:02:56.931Z,75.20
2019-05-06T00:05:26.140Z,75.30
2019-05-06T00:07:55.320Z,74.80
2019-05-06T00:10:26.442Z,74.20
2019-05-06T00:12:55.826Z,73.50
2019-05-06T00:15:25.000Z,73.80
2019-05-06T00:17:54.234Z,73.80
2019-05-06T00:20:24.371Z,74.30
2019-05-06T00:22:56.270Z,74.70
2019-05-06T00:25:38.971Z,75.00
2019-05-06T00:28:28.689Z,75.60
2019-05-06T00:31:12.081Z,75.80
2019-05-06T00:33:29.895Z,76.10
2019-05-06T00:36:00.588Z,76.70
2019-05-06T00:38:29.797Z,76.80
2019-05-06T00:41:04.047Z,77.00
2019-05-06T00:43:34.510Z,76.90
2019-05-06T00:46:04.685Z,77.20
2019-05-06T00:48:34.333Z,77.20
2019-05-06T00:51:04.507Z,77.40
2019-05-06T00:53:36.100Z,77.30
2019-05-06T00:56:05.387Z,77.30
2019-05-06T00:58:34.905Z,77.20
2019-05-06T01:01:04.793Z,77.20
2019-05-06T01:03:34.682Z,77.20
2019-05-06T01:06:04.394Z,77.20
2019-05-06T01:08:35.027Z,77.70
2019-05-06T01:11:04.259Z,78.20
2019-05-06T01:13:48.598Z,78.60
2019-05-06T01:16:19.684Z,78.90
2019-05-06T01:18:48.859Z,79.50
2019-05-06T01:21:18.349Z,79.50
2019-05-06T01:23:47.644Z,79.70
2019-05-06T01:26:17.115Z,79.90
2019-05-06T01:28:46.694Z,80.00
2019-05-06T01:31:15.980Z,80.10
2019-05-06T01:33:45.451Z,79.90
2019-05-06T01:36:14.735Z,79.80
2019-05-06T01:38:56.834Z,79.70
2019-05-06T01:41:36.324Z,79.80
2019-05-06T01:44:05.597Z,80.00
2019-05-06T01:46:34.712Z,80.40
2019-05-06T01:49:04.385Z,80.60
2019-05-06T01:51:34.809Z,80.60
2019-05-06T01:54:04.387Z,81.00
2019-05-06T01:56:33.853Z,80.70
2019-05-06T01:59:04.596Z,80.30
2019-05-06T02:01:34.408Z,80.00
2019-05-06T02:04:04.441Z,79.60
2019-05-06T02:06:34.433Z,79.20
2019-05-06T02:09:04.673Z,79.10
2019-05-06T02:11:34.210Z,78.90
2019-05-06T02:14:04.737Z,79.00
2019-05-06T02:16:34.416Z,79.10
2019-05-06T02:19:04.209Z,79.20
2019-05-06T02:21:51.170Z,79.40
2019-05-06T02:24:24.436Z,79.50
2019-05-06T02:26:54.271Z,79.70
2019-05-06T02:29:28.079Z,80.00
2019-05-06T02:32:21.104Z,80.00
2019-05-06T02:34:46.757Z,80.00
2019-05-06T02:37:21.019Z,79.90
2019-05-06T02:39:53.157Z,79.80
2019-05-06T02:42:23.676Z,79.90
2019-05-06T02:44:54.057Z,80.00
2019-05-06T02:47:53.552Z,80.10
2019-05-06T02:50:23.975Z,80.00
2019-05-06T02:52:53.853Z,80.00
2019-05-06T02:55:23.647Z,80.30
2019-05-06T02:57:55.698Z,80.40
2019-05-06T03:00:25.731Z,80.30
2019-05-06T03:02:54.922Z,80.30
2019-05-06T03:05:24.104Z,80.60
2019-05-06T03:07:57.049Z,80.60
2019-05-06T03:10:24.853Z,80.70
2019-05-06T03:12:54.398Z,80.70
2019-05-06T03:15:24.142Z,80.50
2019-05-06T03:17:55.383Z,80.80
2019-05-06T03:20:43.760Z,80.90
2019-05-06T03:23:14.222Z,81.10
2019-05-06T03:25:43.954Z,81.20
2019-05-06T03:28:13.459Z,81.20
2019-05-06T03:30:45.759Z,81.20
2019-05-06T03:33:37.820Z,81.40
2019-05-06T03:36:00.742Z,81.30
2019-05-06T03:38:17.145Z,81.30
2019-05-06T03:40:46.339Z,81.20
2019-05-06T03:43:16.082Z,81.40
2019-05-06T03:46:14.008Z,81.40
2019-05-06T03:48:44.183Z,81.30
2019-05-06T03:51:13.851Z,81.10
2019-05-06T03:53:43.536Z,81.00
2019-05-06T03:56:16.833Z,81.00
2019-05-06T03:58:44.050Z,81.10
2019-05-06T04:01:13.376Z,81.10
2019-05-06T04:03:48.631Z,81.20
2019-05-06T04:06:14.007Z,81.20
2019-05-06T04:08:43.920Z,81.40
2019-05-06T04:11:14.366Z,81.50
2019-05-06T04:13:43.834Z,81.80
2019-05-06T04:16:29.362Z,81.70
2019-05-06T04:19:06.246Z,81.30
2019-05-06T04:21:43.768Z,81.40
2019-05-06T04:24:22.955Z,81.40
2019-05-06T04:27:03.040Z,81.70
2019-05-06T04:29:35.508Z,81.90
2019-05-06T04:32:03.723Z,82.00
2019-05-06T04:34:33.303Z,82.20
2019-05-06T04:37:03.538Z,81.90
2019-05-06T04:39:33.317Z,81.90
2019-05-06T04:42:03.460Z,81.80
2019-05-06T04:44:33.241Z,81.80
2019-05-06T04:47:05.030Z,81.80
2019-05-06T04:49:33.423Z,81.70
2019-05-06T04:52:03.650Z,81.70
2019-05-06T04:54:33.770Z,81.70
2019-05-06T04:57:05.168Z,81.90
2019-05-06T04:59:34.522Z,81.50
2019-05-06T05:02:03.646Z,81.40
2019-05-06T05:04:36.499Z,81.50
2019-05-06T05:07:03.822Z,81.10
2019-05-06T05:09:33.018Z,81.10
2019-05-06T05:12:09.166Z,81.00
2019-05-06T05:14:54.738Z,80.60
2019-05-06T05:17:42.830Z,80.70
2019-05-06T05:20:12.664Z,80.60
2019-05-06T05:22:42.432Z,80.50
2019-05-06T05:25:12.258Z,80.60
2019-05-06T05:27:42.175Z,80.20
2019-05-06T05:30:12.471Z,81.10
2019-05-06T05:32:42.802Z,79.60
2019-05-06T05:35:12.791Z,80.30
2019-05-06T05:37:42.114Z,79.50
2019-05-06T05:40:12.973Z,79.80
2019-05-06T05:42:58.479Z,80.00
2019-05-06T05:45:27.654Z,79.70
2019-05-06T05:47:58.425Z,79.60
2019-05-06T05:50:34.742Z,79.20
2019-05-06T05:53:03.919Z,79.70
2019-05-06T05:55:33.136Z,79.20
2019-05-06T05:58:03.236Z,79.30
2019-05-06T06:00:34.363Z,79.50
2019-05-06T06:03:06.860Z,79.90
2019-05-06T06:05:34.569Z,79.30
2019-05-06T06:08:03.678Z,79.20
2019-05-06T06:11:00.798Z,79.00
2019-05-06T06:13:33.529Z,79.50
2019-05-06T06:16:33.970Z,78.40
2019-05-06T06:19:22.180Z,78.80
2019-05-06T06:21:56.643Z,79.20
2019-05-06T06:24:33.358Z,78.70
2019-05-06T06:27:03.087Z,78.70
2019-05-06T06:29:32.522Z,78.60
2019-05-06T06:32:23.169Z,78.40
2019-05-06T06:35:10.879Z,78.70
2019-05-06T06:38:07.802Z,77.80
2019-05-06T06:40:37.039Z,77.40
2019-05-06T06:43:12.287Z,78.20
2019-05-06T06:45:42.192Z,77.90
2019-05-06T06:48:12.333Z,78.00
2019-05-06T06:50:42.679Z,76.90
2019-05-06T06:53:12.369Z,75.80
2019-05-06T06:55:42.933Z,75.00
2019-05-06T06:58:41.736Z,74.70
2019-05-06T07:01:34.405Z,74.40
2019-05-06T07:04:11.248Z,74.40
2019-05-06T07:06:46.430Z,73.80
2019-05-06T07:09:29.642Z,72.10
2019-05-06T07:11:58.070Z,69.00
2019-05-06T07:14:27.216Z,69.50
2019-05-06T07:16:56.367Z,70.00
2019-05-06T07:19:32.715Z,70.30
2019-05-06T07:22:02.882Z,71.00
2019-05-06T07:24:32.515Z,72.00
2019-05-06T07:27:13.686Z,72.60
2019-05-06T07:29:48.295Z,71.80
2019-05-06T07:32:13.646Z,71.80
2019-05-06T07:34:42.934Z,71.30
2019-05-06T07:37:12.523Z,70.40
2019-05-06T07:39:43.144Z,70.40
2019-05-06T07:42:18.498Z,70.90
2019-05-06T07:45:22.110Z,69.90
2019-05-06T07:47:54.717Z,69.30
2019-05-06T07:50:23.883Z,69.10
2019-05-06T07:53:08.803Z,68.50
2019-05-06T07:55:38.484Z,67.60
2019-05-06T07:58:07.717Z,66.60
2019-05-06T08:00:37.047Z,66.20
2019-05-06T08:03:06.466Z,66.00
2019-05-06T08:05:35.598Z,65.90
2019-05-06T08:08:04.882Z,65.90
2019-05-06T08:10:34.062Z,64.90
2019-05-06T08:13:03.186Z,66.00
2019-05-06T08:15:32.792Z,67.20
2019-05-06T08:18:03.376Z,68.60
2019-05-06T08:20:39.290Z,69.30
2019-05-06T08:23:28.082Z,71.20
2019-05-06T08:26:09.176Z,71.00
2019-05-06T08:28:38.642Z,74.30
2019-05-06T08:30:59.410Z,73.30
2019-05-06T08:33:28.503Z,77.10
2019-05-06T08:36:10.500Z,77.80
2019-05-06T08:38:35.662Z,80.80
2019-05-06T08:41:04.852Z,79.40
2019-05-06T08:43:34.050Z,75.90
2019-05-06T08:46:03.354Z,76.40
2019-05-06T08:48:32.795Z,75.30
2019-05-06T08:51:09.249Z,76.30
2019-05-06T08:53:45.738Z,74.00
2019-05-06T08:56:17.626Z,70.20
2019-05-06T08:58:49.821Z,68.60
2019-05-06T09:01:37.652Z,65.80
2019-05-06T09:04:12.375Z,65.30
2019-05-06T09:06:37.734Z,65.40
2019-05-06T09:09:08.634Z,64.10
2019-05-06T09:11:38.125Z,62.60
2019-05-06T09:14:09.851Z,63.20
2019-05-06T09:16:39.339Z,60.70
2019-05-06T09:19:08.514Z,61.50
2019-05-06T09:21:37.662Z,62.50
2019-05-06T09:24:06.830Z,65.20
2019-05-06T09:26:46.697Z,65.80
2019-05-06T09:29:36.137Z,66.90
2019-05-06T09:32:27.026Z,67.30
2019-05-06T09:35:02.727Z,67.90
2019-05-06T09:37:32.874Z,64.70
2019-05-06T09:40:02.886Z,63.20
2019-05-06T09:42:37.018Z,63.30
2019-05-06T09:45:06.623Z,61.60
2019-05-06T09:47:53.197Z,59.20
2019-05-06T09:50:36.891Z,56.90
2019-05-06T09:53:07.790Z,55.70
2019-05-06T09:56:03.358Z,57.90
2019-05-06T09:58:33.155Z,59.30
2019-05-06T10:01:03.638Z,59.00
2019-05-06T10:03:32.806Z,62.00
2019-05-06T10:06:02.756Z,62.70
2019-05-06T10:08:32.452Z,62.10
2019-05-06T10:11:03.236Z,61.80
2019-05-06T10:13:32.838Z,60.80
2019-05-06T10:16:03.012Z,59.70
2019-05-06T10:18:32.449Z,55.50
2019-05-06T10:21:01.634Z,52.50
2019-05-06T10:23:32.756Z,53.10
2019-05-06T10:26:04.539Z,53.10
2019-05-06T10:28:40.449Z,52.80
2019-05-06T10:31:12.761Z,51.80
2019-05-06T10:33:59.473Z,51.30
2019-05-06T10:36:32.590Z,50.10
2019-05-06T10:39:05.963Z,50.10
2019-05-06T10:41:37.143Z,49.20
2019-05-06T10:44:37.842Z,48.20
2019-05-06T10:47:06.970Z,48.90
2019-05-06T10:49:36.110Z,49.60
2019-05-06T10:52:12.694Z,51.30
2019-05-06T10:54:42.195Z,51.80
2019-05-06T10:57:22.048Z,51.70
2019-05-06T10:59:51.554Z,53.20
2019-05-06T11:02:45.754Z,49.60
2019-05-06T11:05:14.933Z,48.60
2019-05-06T11:07:44.106Z,49.20
2019-05-06T11:10:24.317Z,50.10
2019-05-06T11:12:44.103Z,47.70
2019-05-06T11:15:13.306Z,49.90
2019-05-06T11:17:43.588Z,47.50
2019-05-06T11:20:14.019Z,47.00
2019-05-06T11:22:43.786Z,46.50
2019-05-06T11:25:13.114Z,46.80
2019-05-06T11:27:45.206Z,43.40
2019-05-06T11:30:21.886Z,41.90
2019-05-06T11:33:04.869Z,42.50
2019-05-06T11:35:55.482Z,43.20
2019-05-06T11:38:24.986Z,43.30
2019-05-06T11:40:54.170Z,44.00
2019-05-06T11:43:23.345Z,44.20
2019-05-06T11:45:52.537Z,45.60
2019-05-06T11:48:22.271Z,48.60
2019-05-06T11:50:54.475Z,51.50
2019-05-06T11:53:23.638Z,55.70
2019-05-06T11:55:54.739Z,55.10
2019-05-06T11:58:43.392Z,54.80
2019-05-06T12:01:22.270Z,52.30
2019-05-06T12:03:54.482Z,49.00
2019-05-06T12:06:23.663Z,47.60
2019-05-06T12:08:52.837Z,43.90
2019-05-06T12:11:23.775Z,43.70
2019-05-06T12:13:53.440Z,42.90
2019-05-06T12:16:25.997Z,42.30
2019-05-06T12:18:53.591Z,43.30
2019-05-06T12:21:23.331Z,45.40
2019-05-06T12:23:53.848Z,46.00
2019-05-06T12:26:23.330Z,47.20
2019-05-06T12:28:54.108Z,47.50
2019-05-06T12:31:23.524Z,48.70
2019-05-06T12:33:53.479Z,55.70
2019-05-06T12:36:23.849Z,58.50
2019-05-06T12:39:16.285Z,60.90
2019-05-06T12:42:01.386Z,64.10
2019-05-06T12:44:32.264Z,66.50
2019-05-06T12:47:19.411Z,66.90
2019-05-06T12:49:48.586Z,70.70
2019-05-06T12:52:17.802Z,72.80
2019-05-06T12:54:46.990Z,72.40
2019-05-06T12:57:16.195Z,71.80
2019-05-06T12:59:45.374Z,71.80
2019-05-06T13:02:14.654Z,71.40
2019-05-06T13:04:55.272Z,71.80
2019-05-06T13:07:20.526Z,73.20
2019-05-06T13:09:49.694Z,74.60
2019-05-06T13:12:23.183Z,71.50
2019-05-06T13:14:52.742Z,71.60
2019-05-06T13:17:27.062Z,64.90
2019-05-06T13:19:56.249Z,62.90
2019-05-06T13:22:38.279Z,64.50
2019-05-06T13:25:13.366Z,64.00
2019-05-06T13:27:42.844Z,64.30
2019-05-06T13:30:12.914Z,65.70
2019-05-06T13:32:46.202Z,64.90
2019-05-06T13:35:15.441Z,63.80
2019-05-06T13:37:44.590Z,66.20
2019-05-06T13:40:13.808Z,70.10
2019-05-06T13:42:52.878Z,69.00
2019-05-06T13:45:22.206Z,68.40
2019-05-06T13:48:15.181Z,72.40
2019-05-06T13:50:46.016Z,73.60
2019-05-06T13:53:24.474Z,73.90
2019-05-06T13:55:52.690Z,66.50
2019-05-06T13:58:21.914Z,63.40
2019-05-06T14:00:52.012Z,65.40
2019-05-06T14:03:21.410Z,63.60
2019-05-06T14:05:52.070Z,62.40
2019-05-06T14:08:22.126Z,62.00
2019-05-06T14:10:59.062Z,60.80
2019-05-06T14:13:22.331Z,60.70
2019-05-06T14:15:52.860Z,62.70
2019-05-06T14:18:22.655Z,59.90
2019-05-06T14:20:52.252Z,63.40
2019-05-06T14:23:22.032Z,60.50
2019-05-06T14:26:09.131Z,61.90
2019-05-06T14:28:47.295Z,63.70
2019-05-06T14:31:25.718Z,64.30
2019-05-06T14:33:54.584Z,64.60
2019-05-06T14:36:27.721Z,65.60
2019-05-06T14:38:54.601Z,64.20
2019-05-06T14:41:27.318Z,64.50
2019-05-06T14:43:56.586Z,63.60
2019-05-06T14:46:27.319Z,61.20
2019-05-06T14:48:56.539Z,57.70
2019-05-06T14:51:25.751Z,56.40
2019-05-06T14:53:54.938Z,53.10
2019-05-06T14:56:34.646Z,53.80
2019-05-06T14:59:23.535Z,52.80
2019-05-06T15:01:53.837Z,51.40
2019-05-06T15:04:23.314Z,51.00
2019-05-06T15:06:53.057Z,51.40
2019-05-06T15:09:22.711Z,50.10
2019-05-06T15:11:54.851Z,49.70
2019-05-06T15:14:26.915Z,49.50
2019-05-06T15:16:56.482Z,50.80
2019-05-06T15:19:25.708Z,50.30
2019-05-06T15:21:56.510Z,48.00
2019-05-06T15:24:25.623Z,45.50
2019-05-06T15:26:58.694Z,45.50
2019-05-06T15:29:27.878Z,44.70
2019-05-06T15:32:23.707Z,46.30
2019-05-06T15:35:22.273Z,46.00
2019-05-06T15:37:57.250Z,47.50
2019-05-06T15:40:33.079Z,49.60
2019-05-06T15:42:57.262Z,51.50
2019-05-06T15:45:26.434Z,52.20
2019-05-06T15:47:55.602Z,52.60
2019-05-06T15:50:24.824Z,53.40
2019-05-06T15:52:54.114Z,52.70
2019-05-06T15:55:23.286Z,51.10
2019-05-06T15:57:52.764Z,47.90
2019-05-06T16:00:22.710Z,45.60
2019-05-06T16:02:53.037Z,46.20
2019-05-06T16:05:26.382Z,46.00
2019-05-06T16:07:53.463Z,46.00
2019-05-06T16:10:22.828Z,47.20
2019-05-06T16:12:53.817Z,46.70
2019-05-06T16:15:24.815Z,45.00
2019-05-06T16:17:54.221Z,45.00
2019-05-06T16:20:23.402Z,45.00
2019-05-06T16:23:03.352Z,46.20
2019-05-06T16:25:32.647Z,46.70
2019-05-06T16:28:02.300Z,47.20
2019-05-06T16:30:53.761Z,46.80
2019-05-06T16:33:22.899Z,46.50
2019-05-06T16:35:52.365Z,46.30
2019-05-06T16:38:22.975Z,45.60
2019-05-06T16:41:02.115Z,44.00
2019-05-06T16:43:23.363Z,43.60
2019-05-06T16:45:53.128Z,44.10
2019-05-06T16:48:22.910Z,44.70
2019-05-06T16:50:52.283Z,44.90
2019-05-06T16:53:22.947Z,43.50
2019-05-06T16:56:14.320Z,43.60
2019-05-06T16:58:47.594Z,44.50
2019-05-06T17:01:21.973Z,44.70
2019-05-06T17:04:00.477Z,43.70
2019-05-06T17:06:33.050Z,44.00
2019-05-06T17:09:16.878Z,44.60
2019-05-06T17:11:34.689Z,45.20
2019-05-06T17:14:06.148Z,46.30
2019-05-06T17:16:37.660Z,46.30
2019-05-06T17:19:09.137Z,45.50
2019-05-06T17:21:38.352Z,46.40
2019-05-06T17:24:09.842Z,49.20
2019-05-06T17:26:39.026Z,51.00
2019-05-06T17:29:15.941Z,51.90
2019-05-06T17:32:11.986Z,52.10
2019-05-06T17:34:44.470Z,52.60
2019-05-06T17:37:42.063Z,53.30
2019-05-06T17:40:14.144Z,53.60
2019-05-06T17:42:46.065Z,54.20
2019-05-06T17:45:59.421Z,54.60
2019-05-06T17:48:36.861Z,55.20
2019-05-06T17:51:13.676Z,56.00
2019-05-06T17:53:44.993Z,57.80
2019-05-06T17:56:14.157Z,57.90
2019-05-06T17:58:48.892Z,58.10
2019-05-06T18:01:28.111Z,59.00
2019-05-06T18:03:57.335Z,59.60
2019-05-06T18:06:29.779Z,61.20
2019-05-06T18:08:58.962Z,61.10
2019-05-06T18:11:29.230Z,61.00
2019-05-06T18:13:58.414Z,62.00
2019-05-06T18:16:34.994Z,63.80
2019-05-06T18:19:05.410Z,65.00
2019-05-06T18:21:34.554Z,65.60
2019-05-06T18:24:03.806Z,64.80
2019-05-06T18:26:36.167Z,63.30
2019-05-06T18:29:06.598Z,63.70
2019-05-06T18:31:35.847Z,64.30
2019-05-06T18:34:07.130Z,65.50
2019-05-06T18:36:36.366Z,64.20
2019-05-06T18:39:06.952Z,65.10
2019-05-06T18:41:36.672Z,64.60
2019-05-06T18:44:06.064Z,64.30
2019-05-06T18:46:35.263Z,64.30
2019-05-06T18:49:04.442Z,63.80
2019-05-06T18:51:33.686Z,63.50
2019-05-06T18:54:04.079Z,57.60
2019-05-06T18:56:33.250Z,53.70
2019-05-06T18:59:02.971Z,53.60
2019-05-06T19:01:33.171Z,52.10
2019-05-06T19:04:17.230Z,51.40
2019-05-06T19:06:46.420Z,49.50
2019-05-06T19:09:42.342Z,49.40
2019-05-06T19:12:12.624Z,49.00
2019-05-06T19:14:43.280Z,49.30
2019-05-06T19:17:13.161Z,50.10
2019-05-06T19:19:42.864Z,50.90
2019-05-06T19:22:14.019Z,52.10
2019-05-06T19:24:44.679Z,52.30
2019-05-06T19:27:24.640Z,53.40
2019-05-06T19:29:54.519Z,53.30
2019-05-06T19:32:25.648Z,53.80
2019-05-06T19:34:55.954Z,53.30
2019-05-06T19:37:33.046Z,53.00
2019-05-06T19:40:06.013Z,53.20
2019-05-06T19:42:46.170Z,53.00
2019-05-06T19:45:05.934Z,53.30
2019-05-06T19:47:38.943Z,53.70
2019-05-06T19:50:08.152Z,53.70
2019-05-06T19:52:42.200Z,52.30
2019-05-06T19:55:12.227Z,51.90
2019-05-06T19:57:42.961Z,50.60
2019-05-06T20:00:23.663Z,51.00
2019-05-06T20:02:52.120Z,51.10
2019-05-06T20:05:34.974Z,51.50
2019-05-06T20:08:13.807Z,51.70
2019-05-06T20:10:52.940Z,52.10
2019-05-06T20:13:23.199Z,52.80
2019-05-06T20:15:52.646Z,52.80
2019-05-06T20:18:21.794Z,53.20
2019-05-06T20:20:52.976Z,53.40
2019-05-06T20:23:23.209Z,54.10
2019-05-06T20:25:52.561Z,53.80
2019-05-06T20:28:22.998Z,54.30
2019-05-06T20:30:53.649Z,55.10
2019-05-06T20:33:24.038Z,55.20
2019-05-06T20:35:55.710Z,56.00
2019-05-06T20:38:24.893Z,56.10
2019-05-06T20:40:54.110Z,56.00
2019-05-06T20:43:24.103Z,55.90
2019-05-06T20:45:53.507Z,56.60
2019-05-06T20:48:23.493Z,56.50
2019-05-06T20:50:53.004Z,57.40
2019-05-06T20:53:23.254Z,57.30
2019-05-06T20:55:53.358Z,58.30
2019-05-06T20:58:23.112Z,58.50
2019-05-06T21:00:52.756Z,58.80
2019-05-06T21:03:22.350Z,58.20
2019-05-06T21:05:51.822Z,59.20
2019-05-06T21:08:22.134Z,58.50
2019-05-06T21:10:52.829Z,58.80
2019-05-06T21:13:31.462Z,58.90
2019-05-06T21:15:53.267Z,59.10
2019-05-06T21:18:22.961Z,59.30
2019-05-06T21:20:52.145Z,59.20
2019-05-06T21:23:22.696Z,59.00
2019-05-06T21:25:52.443Z,59.40
2019-05-06T21:28:23.860Z,59.50
2019-05-06T21:30:53.093Z,58.70
2019-05-06T21:33:24.039Z,58.80
2019-05-06T21:35:54.506Z,58.80
2019-05-06T21:38:23.806Z,58.80
2019-05-06T21:40:53.026Z,58.30
2019-05-06T21:43:22.814Z,58.30
2019-05-06T21:45:54.553Z,58.40
2019-05-06T21:48:27.202Z,58.50
2019-05-06T21:51:02.527Z,58.90
2019-05-06T21:53:34.262Z,58.10
2019-05-06T21:56:03.532Z,57.50
2019-05-06T21:58:32.654Z,57.90
2019-05-06T22:01:05.745Z,57.20
2019-05-06T22:03:35.014Z,57.70
2019-05-06T22:06:04.500Z,57.90
2019-05-06T22:08:33.674Z,58.60
2019-05-06T22:11:03.112Z,57.20
2019-05-06T22:13:33.334Z,56.90
2019-05-06T22:16:04.748Z,56.80
2019-05-06T22:18:33.802Z,57.20
2019-05-06T22:21:11.151Z,57.50
2019-05-06T22:23:52.362Z,57.80
2019-05-06T22:26:23.068Z,58.00
2019-05-06T22:28:52.636Z,58.40
2019-05-06T22:31:24.233Z,58.50
2019-05-06T22:33:53.088Z,58.40
2019-05-06T22:36:22.772Z,58.00
2019-05-06T22:38:53.060Z,58.10
2019-05-06T22:41:23.109Z,58.70
2019-05-06T22:43:53.332Z,59.00
2019-05-06T22:46:23.509Z,59.20
2019-05-06T22:48:54.445Z,59.60
2019-05-06T22:51:24.015Z,60.00
2019-05-06T22:53:53.489Z,60.30
2019-05-06T22:56:23.046Z,60.90
2019-05-06T22:58:52.683Z,61.60
2019-05-06T23:01:39.477Z,62.30
2019-05-06T23:04:09.378Z,62.50
2019-05-06T23:06:38.557Z,62.60
2019-05-06T23:09:08.387Z,62.70
2019-05-06T23:11:39.164Z,62.60
2019-05-06T23:14:08.306Z,62.70
2019-05-06T23:16:47.987Z,63.00
2019-05-06T23:19:17.178Z,63.40
2019-05-06T23:21:46.275Z,63.80
2019-05-06T23:24:15.510Z,64.40
2019-05-06T23:26:44.674Z,65.30
2019-05-06T23:29:13.859Z,65.80
2019-05-06T23:31:43.020Z,66.20
2019-05-06T23:34:12.637Z,66.90
2019-05-06T23:37:25.342Z,67.20
2019-05-06T23:40:37.314Z,67.30
2019-05-06T23:43:42.773Z,67.70
2019-05-06T23:46:47.882Z,67.80
2019-05-06T23:49:52.880Z,68.20
2019-05-06T23:52:57.977Z,68.50
2019-05-06T23:56:03.068Z,68.90
2019-05-06T23:58:32.396Z,69.00
